Aeroporto :
LOGIN :

Iscrizione | Disclaimer

   EN    FR    IT 

 










Sommario :    VFR   VFR Marginale   IFR   IFR Intensivo   IFR Molto Intensivo
Visibilità : 
Base nubi : 
>= 8 km
>= 3000ft
5 / 8 km
1000 / 3000 ft
1500m / 5 km
500 / 1000 ft
800 / 1500m
200 / 500 ft
< 800m
< 200 ft
Simboli :   Temporali  Nebbia  Neve Forte  Precipitazioni Forti  Vento > 20 kt
SIGMETs :   Varie  Temporali  Ghiacco  Turbolenza  Onda orograficha  Ceneri Vulcaniche






- Altitudine del aeroporto : 388 ft
- Codice IATA : QYR


LFQB - Troyes Barberey

ULTIMO METAR :
  • 191630Z AUTO 19009KT 9999 BKN037/// BKN048/// OVC060/// ///TCU 13/11 Q1006

METARs OBSOLETI :
  • 191600Z AUTO 19007KT 6000 -RA BKN037 OVC044 13/11 Q1006
  • 191530Z AUTO 16006KT 9999 -RA OVC035 13/11 Q1006
  • 191500Z AUTO 18004KT 9999 OVC032 13/11 Q1006
  • 191430Z AUTO 17006KT 8000 -RA BKN030 OVC038 13/12 Q1006
  • 191400Z AUTO 23006KT 9999 SCT034 BKN041 BKN047 14/12 Q1006

TAF N/A



MetMap, La meteo Aeronautica in un colpo d'occhio ! - Copyright ORBIFLY Dicembre 2007 - Disclaimer

ORBIFLY MET'MAP TEAM :

Programmazione e sviluppo : Alexandra Zaïnal
Concezione e sviluppo : Baudouin d'Aumeries
Co-Programmazione e sviluppo : Marc-Olivier Méhu
Supporto tecnico e logistico : Manuel Goepfert
Aiuto per la traduzione : Arnaldo La Scala

Contatto : metmap@orbifly.com




FONTI E CREDITI :

   NOAA